Time;durP1;ratioP1;P1;durP2;ratioP2;P2;SDS_P1;SDS_P2;PMS_P1;PMS_P2;Temp;Humidity;BMP_temperature;BMP_pressure;BME280_temperature;BME280_humidity;BME280_pressure;Samples;Min_cycle;Max_cycle;Signal;HPM_P1;HPM_P2
2022/12/24 00:02:00;;;;;;;10.70;5.30;;;7.20;99.90;;;;;;5010453;28;20106;-70
2022/12/24 00:04:26;;;;;;;14.63;5.90;;;7.30;99.90;;;;;;5011913;28;20394;-69
2022/12/24 00:06:51;;;;;;;16.40;6.30;;;7.20;99.90;;;;;;5008789;28;20355;-70
2022/12/24 00:09:17;;;;;;;11.33;5.47;;;7.20;99.90;;;;;;5026616;28;20573;-70
2022/12/24 00:11:43;;;;;;;14.30;6.67;;;7.20;99.90;;;;;;5010167;28;20045;-70
2022/12/24 00:14:08;;;;;;;15.07;6.47;;;7.20;99.90;;;;;;5024941;28;20095;-69
2022/12/24 00:16:34;;;;;;;12.33;5.83;;;7.20;99.90;;;;;;5008541;28;20056;-70
2022/12/24 00:18:59;;;;;;;10.53;5.70;;;7.20;99.90;;;;;;5007905;28;20068;-70
2022/12/24 00:21:25;;;;;;;11.30;5.77;;;7.20;99.90;;;;;;5011376;28;20041;-69
2022/12/24 00:23:51;;;;;;;10.77;6.00;;;7.20;99.90;;;;;;5016259;28;20098;-69
2022/12/24 00:26:16;;;;;;;17.40;6.90;;;7.20;99.90;;;;;;5008033;28;20593;-70
2022/12/24 00:28:42;;;;;;;11.20;6.00;;;7.20;99.90;;;;;;5024694;28;20057;-69
2022/12/24 00:31:09;;;;;;;13.90;6.70;;;7.20;99.90;;;;;;5034661;28;20045;-69
2022/12/24 00:33:35;;;;;;;14.10;6.53;;;7.20;99.90;;;;;;5030352;28;20568;-69
2022/12/24 00:36:01;;;;;;;15.97;6.67;;;7.20;99.90;;;;;;5007310;28;20109;-69
2022/12/24 00:38:26;;;;;;;12.90;6.40;;;7.20;99.90;;;;;;5026965;28;20049;-69
2022/12/24 00:41:01;;;;;;;14.83;6.30;;;7.20;99.90;;;;;;5008181;28;20518;-70
2022/12/24 00:43:28;;;;;;;15.75;7.45;;;7.20;99.90;;;;;;5016481;28;20045;-70
2022/12/24 00:45:54;;;;;;;18.50;7.40;;;7.20;99.90;;;;;;5008245;28;20041;-72
2022/12/24 00:48:21;;;;;;;17.10;6.68;;;7.20;99.90;;;;;;5023321;28;20223;-70
2022/12/24 00:50:48;;;;;;;16.95;7.70;;;7.20;99.90;;;;;;5011986;28;20049;-70
2022/12/24 00:53:14;;;;;;;14.13;6.50;;;7.20;99.90;;;;;;5019906;28;20045;-69
2022/12/24 00:55:39;;;;;;;14.63;6.90;;;7.20;99.90;;;;;;5034690;28;20444;-70
2022/12/24 00:58:05;;;;;;;18.43;7.63;;;7.30;99.90;;;;;;5009995;28;20042;-69
2022/12/24 01:00:31;;;;;;;14.77;6.53;;;7.20;99.90;;;;;;5004893;28;20042;-72
2022/12/24 01:02:56;;;;;;;13.70;6.90;;;7.20;99.90;;;;;;5011137;28;20045;-69
2022/12/24 01:05:22;;;;;;;14.87;7.50;;;7.20;99.90;;;;;;5016321;28;20038;-76
2022/12/24 01:07:48;;;;;;;12.73;6.55;;;7.20;99.90;;;;;;5006467;28;20042;-69
2022/12/24 01:10:17;;;;;;;13.63;5.88;;;7.20;99.90;;;;;;5026177;28;20359;-69
2022/12/24 01:12:44;;;;;;;12.63;6.30;;;7.20;99.90;;;;;;5024587;28;20135;-70
2022/12/24 01:15:11;;;;;;;15.15;7.03;;;7.20;99.90;;;;;;5005555;28;20403;-70
2022/12/24 01:17:36;;;;;;;15.38;6.82;;;7.20;99.90;;;;;;5027148;28;20523;-69
2022/12/24 01:20:03;;;;;;;13.50;5.87;;;7.30;99.90;;;;;;5036191;28;20105;-69
2022/12/24 01:22:29;;;;;;;12.63;6.68;;;7.20;99.90;;;;;;5030880;28;20105;-69
2022/12/24 01:24:55;;;;;;;11.13;5.60;;;7.20;99.90;;;;;;5025564;28;20120;-69
2022/12/24 01:27:20;;;;;;;15.90;7.20;;;7.20;99.90;;;;;;5006429;28;20041;-70
2022/12/24 01:29:46;;;;;;;14.30;6.40;;;7.20;99.90;;;;;;5025871;28;20460;-70
2022/12/24 01:32:12;;;;;;;13.67;6.67;;;7.20;99.90;;;;;;5017626;28;20056;-69
2022/12/24 01:34:38;;;;;;;15.93;6.63;;;7.20;99.90;;;;;;5009624;28;20041;-69
2022/12/24 01:37:03;;;;;;;14.33;6.30;;;7.20;99.90;;;;;;5020023;28;20053;-69
2022/12/24 01:39:29;;;;;;;12.90;6.40;;;7.20;99.90;;;;;;5023563;28;20045;-69
2022/12/24 01:44:41;;;;;;;12.68;6.47;;;7.20;99.90;;;;;;5010384;28;20173;-70
2022/12/24 01:47:16;;;;;;;11.63;5.78;;;7.30;99.90;;;;;;5021168;28;20042;-69
2022/12/24 01:49:46;;;;;;;11.25;5.68;;;7.20;99.90;;;;;;5012306;28;20048;-69
2022/12/24 01:52:16;;;;;;;14.35;6.15;;;7.20;99.90;;;;;;5020941;28;20072;-70
2022/12/24 01:54:54;;;;;;;12.70;5.85;;;7.20;99.90;;;;;;5010057;28;20698;-71
2022/12/24 01:57:25;;;;;;;13.15;6.53;;;7.20;99.90;;;;;;5015920;28;20059;-69
2022/12/24 01:59:56;;;;;;;12.57;6.57;;;7.30;99.90;;;;;;5025751;28;20177;-70
2022/12/24 02:02:22;;;;;;;14.18;6.20;;;7.30;99.90;;;;;;5014262;28;20037;-70
2022/12/24 02:05:09;;;;;;;12.63;5.97;;;7.30;99.90;;;;;;5025600;28;20034;-69
2022/12/24 02:07:36;;;;;;;13.07;6.93;;;7.30;99.90;;;;;;5031185;28;20439;-70
2022/12/24 02:10:04;;;;;;;12.30;6.47;;;7.30;99.90;;;;;;5014857;28;20437;-70
2022/12/24 02:12:33;;;;;;;13.57;6.60;;;7.40;99.90;;;;;;5003323;28;20392;-70
2022/12/24 02:15:00;;;;;;;13.50;6.63;;;7.30;99.90;;;;;;5035874;28;20041;-70
2022/12/24 02:17:38;;;;;;;13.18;6.93;;;7.40;99.90;;;;;;5005060;28;20048;-71
2022/12/24 02:20:42;;;;;;;15.95;7.03;;;7.40;99.90;;;;;;5019919;28;20053;-70
2022/12/24 02:23:49;;;;;;;15.80;6.88;;;7.40;99.90;;;;;;5024209;28;20051;-69
2022/12/24 02:26:27;;;;;;;13.50;6.18;;;7.50;99.90;;;;;;5019345;28;20057;-70
2022/12/24 02:29:18;;;;;;;13.43;6.60;;;7.50;99.90;;;;;;5006602;28;20037;-70
2022/12/24 02:31:52;;;;;;;15.27;6.47;;;7.50;99.90;;;;;;5008194;28;20459;-70
2022/12/24 02:34:28;;;;;;;13.30;6.60;;;7.50;99.90;;;;;;5002843;28;20318;-70
2022/12/24 02:37:08;;;;;;;12.13;6.23;;;7.60;99.90;;;;;;4988399;28;20179;-70
2022/12/24 02:39:58;;;;;;;12.38;5.72;;;7.70;99.90;;;;;;5010967;28;20041;-70
2022/12/24 02:42:35;;;;;;;15.68;6.15;;;7.70;99.90;;;;;;5021747;28;20318;-71
2022/12/24 02:45:06;;;;;;;12.88;5.63;;;7.70;99.90;;;;;;5003063;28;20037;-70
2022/12/24 02:47:33;;;;;;;20.95;6.90;;;7.80;99.90;;;;;;5005711;28;20042;-70
2022/12/24 02:50:00;;;;;;;13.63;5.30;;;7.80;99.90;;;;;;5030512;28;20049;-70
2022/12/24 02:52:34;;;;;;;12.57;6.35;;;7.90;99.90;;;;;;5020558;28;20103;-70
2022/12/24 02:55:31;;;;;;;15.38;6.80;;;7.90;99.90;;;;;;4999204;28;20468;-70
2022/12/24 02:58:17;;;;;;;11.20;5.38;;;8.00;99.90;;;;;;5020929;28;20253;-70
2022/12/24 03:00:45;;;;;;;14.85;6.57;;;8.00;99.90;;;;;;5038611;28;20037;-70
2022/12/24 03:03:20;;;;;;;11.30;5.20;;;8.00;99.90;;;;;;5035303;28;20498;-69
2022/12/24 03:05:50;;;;;;;12.85;6.28;;;8.00;99.90;;;;;;5038655;28;20076;-70
2022/12/24 03:08:32;;;;;;;12.18;5.43;;;8.00;99.90;;;;;;5006278;28;20057;-71
2022/12/24 03:11:08;;;;;;;10.35;4.78;;;8.00;99.90;;;;;;5028323;28;20041;-70
2022/12/24 03:13:35;;;;;;;12.53;4.60;;;8.00;99.90;;;;;;5011119;28;20423;-69
2022/12/24 03:16:06;;;;;;;13.32;4.78;;;8.10;99.90;;;;;;5005743;28;20389;-69
2022/12/24 03:18:32;;;;;;;17.60;5.18;;;8.00;99.90;;;;;;5034452;28;20045;-70
2022/12/24 03:21:04;;;;;;;10.60;4.25;;;8.10;99.90;;;;;;5033081;28;20040;-70
2022/12/24 03:23:30;;;;;;;15.05;4.15;;;8.10;99.90;;;;;;5023720;28;20055;-70
2022/12/24 03:25:58;;;;;;;13.97;3.20;;;8.10;99.90;;;;;;5013017;28;20037;-70
2022/12/24 03:28:26;;;;;;;11.82;3.42;;;8.20;99.90;;;;;;5016628;28;20048;-70
2022/12/24 03:30:52;;;;;;;12.18;3.63;;;8.20;99.90;;;;;;5028726;28;20079;-70
2022/12/24 03:33:18;;;;;;;16.88;4.43;;;8.20;99.90;;;;;;5014723;28;20044;-70
2022/12/24 03:35:44;;;;;;;17.67;3.23;;;8.20;99.90;;;;;;5017761;28;20050;-70
2022/12/24 03:38:10;;;;;;;10.60;2.67;;;8.30;99.90;;;;;;5014026;28;20287;-70
2022/12/24 03:40:35;;;;;;;13.13;2.47;;;8.30;99.90;;;;;;5021490;28;20038;-70
2022/12/24 03:43:01;;;;;;;8.93;2.00;;;8.30;99.90;;;;;;5011621;28;20037;-70
2022/12/24 03:45:27;;;;;;;20.48;2.40;;;8.30;99.90;;;;;;5012613;28;20187;-69
2022/12/24 03:47:52;;;;;;;16.60;2.57;;;8.40;99.90;;;;;;5031892;28;20041;-69
2022/12/24 03:50:18;;;;;;;10.80;2.37;;;8.40;99.90;;;;;;5027233;28;20041;-70
2022/12/24 03:52:44;;;;;;;19.47;3.60;;;8.40;99.90;;;;;;5003725;28;20394;-70
2022/12/24 03:55:10;;;;;;;29.67;2.97;;;8.30;99.90;;;;;;5031448;28;20041;-70
2022/12/24 03:57:35;;;;;;;19.83;4.17;;;8.30;99.90;;;;;;5034656;28;20807;-70
2022/12/24 04:00:03;;;;;;;12.77;3.33;;;8.30;99.90;;;;;;5015963;28;20048;-72
2022/12/24 04:02:29;;;;;;;23.38;2.97;;;8.30;99.90;;;;;;5029063;28;20045;-70
2022/12/24 04:04:54;;;;;;;22.40;2.90;;;8.20;99.90;;;;;;5028051;28;20051;-70
2022/12/24 04:07:20;;;;;;;26.37;3.70;;;8.20;99.90;;;;;;5013315;28;20136;-70
2022/12/24 04:09:46;;;;;;;15.70;2.87;;;8.20;99.90;;;;;;5006240;28;20190;-70
2022/12/24 04:12:11;;;;;;;23.63;3.07;;;8.20;99.90;;;;;;5032162;28;20066;-70
2022/12/24 04:14:37;;;;;;;25.37;2.97;;;8.10;99.90;;;;;;5007986;28;20461;-70
2022/12/24 04:17:02;;;;;;;19.50;3.93;;;8.10;99.90;;;;;;5033819;28;20094;-69
2022/12/24 04:19:28;;;;;;;22.93;3.77;;;8.10;99.90;;;;;;5031714;28;20471;-70
2022/12/24 04:21:54;;;;;;;12.47;2.63;;;8.10;99.90;;;;;;5031298;28;20120;-69
2022/12/24 04:24:19;;;;;;;19.50;2.40;;;8.10;99.90;;;;;;5030357;28;20045;-70
2022/12/24 04:26:45;;;;;;;23.43;3.17;;;8.10;99.90;;;;;;5027927;28;20107;-70
2022/12/24 04:29:14;;;;;;;22.07;3.50;;;8.10;99.90;;;;;;5014402;28;20045;-70
2022/12/24 04:31:39;;;;;;;14.55;2.40;;;8.10;99.90;;;;;;5026749;28;20041;-70
2022/12/24 04:34:05;;;;;;;16.57;3.23;;;8.10;99.90;;;;;;5018668;28;20047;-70
2022/12/24 04:36:30;;;;;;;16.97;2.93;;;8.10;99.90;;;;;;5027865;28;20508;-70
2022/12/24 04:38:56;;;;;;;17.00;2.50;;;8.10;99.90;;;;;;5029219;28;20356;-69
2022/12/24 04:41:23;;;;;;;21.40;3.27;;;8.10;99.90;;;;;;5027304;28;20144;-71
2022/12/24 04:43:49;;;;;;;;;;;8.20;99.90;;;;;;5026783;28;20132;-70
2022/12/24 04:46:20;;;;;;;12.95;2.25;;;8.10;99.90;;;;;;5033168;28;20417;-70
2022/12/24 04:48:49;;;;;;;17.48;2.80;;;8.00;99.90;;;;;;5004722;28;20053;-70
2022/12/24 04:51:16;;;;;;;16.00;3.15;;;8.10;99.90;;;;;;5006802;28;20033;-70
2022/12/24 04:53:42;;;;;;;26.13;3.05;;;8.10;99.90;;;;;;5034936;28;20111;-70
2022/12/24 04:56:15;;;;;;;25.60;3.42;;;8.10;99.90;;;;;;5014779;28;20053;-70
2022/12/24 04:58:40;;;;;;;18.25;3.03;;;8.00;99.90;;;;;;5009256;28;20124;-69
2022/12/24 05:01:11;;;;;;;15.57;3.38;;;8.00;99.90;;;;;;5029542;28;20132;-70
2022/12/24 05:03:36;;;;;;;18.38;2.60;;;8.00;99.90;;;;;;5014186;28;20057;-70
2022/12/24 05:06:08;;;;;;;21.90;3.67;;;8.10;99.90;;;;;;5008545;28;20042;-69
2022/12/24 05:08:33;;;;;;;23.25;4.22;;;8.00;99.90;;;;;;5014125;28;20054;-69
2022/12/24 05:11:00;;;;;;;19.05;2.70;;;8.10;99.90;;;;;;5020266;28;20049;-69
2022/12/24 05:13:26;;;;;;;;;;;8.10;99.90;;;;;;5033151;28;20339;-69
2022/12/24 05:15:52;;;;;;;26.17;3.05;;;8.10;99.90;;;;;;5009155;28;20019;-69
2022/12/24 05:18:18;;;;;;;28.90;3.20;;;8.00;99.90;;;;;;5022731;23;20041;-66
2022/12/24 05:20:44;;;;;;;;;;;8.00;99.90;;;;;;5041064;28;20508;-65
2022/12/24 05:26:29;;;;;;;16.17;2.50;;;8.10;99.90;;;;;;5042445;28;20388;-66
2022/12/24 05:28:57;;;;;;;21.88;3.08;;;8.10;99.90;;;;;;5037273;28;20083;-66
2022/12/24 05:31:25;;;;;;;16.27;2.53;;;8.10;99.90;;;;;;5046339;28;20102;-66
2022/12/24 05:33:53;;;;;;;18.45;3.13;;;8.00;99.90;;;;;;5035696;28;20123;-66
2022/12/24 05:36:19;;;;;;;19.13;4.15;;;8.10;99.90;;;;;;5042457;28;20442;-66
2022/12/24 05:38:45;;;;;;;16.10;2.90;;;8.10;99.90;;;;;;5036068;28;20041;-65
2022/12/24 05:41:10;;;;;;;22.87;3.07;;;8.10;99.90;;;;;;5040681;28;20132;-66
2022/12/24 05:43:37;;;;;;;22.50;3.10;;;8.10;99.90;;;;;;5044541;28;20039;-66
2022/12/24 05:46:06;;;;;;;19.92;3.13;;;8.10;99.90;;;;;;5019398;28;20044;-66
2022/12/24 05:48:32;;;;;;;16.10;3.42;;;8.20;99.90;;;;;;5019229;28;20044;-66
2022/12/24 05:50:58;;;;;;;28.30;4.18;;;8.10;99.90;;;;;;5039938;28;20041;-66
2022/12/24 05:53:24;;;;;;;21.45;3.67;;;8.20;99.90;;;;;;5041687;28;20548;-67
2022/12/24 05:55:50;;;;;;;18.20;4.00;;;8.20;99.90;;;;;;5046243;28;20040;-66
2022/12/24 05:58:16;;;;;;;25.90;2.92;;;8.20;99.90;;;;;;5026211;28;20120;-66
2022/12/24 06:00:42;;;;;;;17.90;3.87;;;8.20;99.90;;;;;;5041323;28;20127;-66
2022/12/24 06:03:07;;;;;;;16.17;2.63;;;8.20;99.90;;;;;;5038147;28;20539;-66
2022/12/24 06:05:33;;;;;;;28.60;3.50;;;8.20;99.90;;;;;;5043460;28;20070;-66
2022/12/24 06:07:59;;;;;;;33.63;2.80;;;8.20;99.90;;;;;;5047715;28;20040;-66
2022/12/24 06:10:24;;;;;;;19.70;5.23;;;8.20;99.90;;;;;;5040533;28;20052;-66
2022/12/24 06:12:50;;;;;;;10.17;3.00;;;8.20;99.90;;;;;;5043859;28;20045;-66
2022/12/24 06:15:16;;;;;;;17.63;2.60;;;8.20;99.90;;;;;;5038786;28;20413;-65
2022/12/24 06:17:41;;;;;;;30.47;3.57;;;8.20;99.90;;;;;;5035445;28;20339;-67
2022/12/24 06:20:07;;;;;;;16.07;2.80;;;8.20;99.90;;;;;;5040836;28;20094;-66
2022/12/24 06:22:33;;;;;;;16.98;2.83;;;8.10;99.90;;;;;;5044510;28;20033;-67
2022/12/24 06:24:59;;;;;;;21.80;2.80;;;8.10;99.90;;;;;;5049112;28;20055;-66
2022/12/24 06:27:24;;;;;;;15.07;4.20;;;8.10;99.90;;;;;;5043023;28;20055;-66
2022/12/24 06:29:50;;;;;;;16.77;3.10;;;8.20;99.90;;;;;;5044221;28;20060;-66
2022/12/24 06:32:16;;;;;;;21.10;3.00;;;8.20;99.90;;;;;;5042223;28;20382;-68
2022/12/24 06:34:41;;;;;;;12.67;2.53;;;8.20;99.90;;;;;;5049138;28;20119;-68
2022/12/24 06:37:07;;;;;;;11.50;2.87;;;8.10;99.90;;;;;;5048148;28;20048;-68
2022/12/24 06:39:33;;;;;;;23.58;3.00;;;8.10;99.90;;;;;;5044902;28;20390;-68
2022/12/24 06:41:59;;;;;;;13.43;3.83;;;8.20;99.90;;;;;;5045885;28;20116;-68
2022/12/24 06:44:25;;;;;;;23.63;3.17;;;8.10;99.90;;;;;;5038640;28;20343;-68
2022/12/24 06:46:51;;;;;;;22.70;3.23;;;8.20;99.90;;;;;;5040507;28;20041;-68
2022/12/24 06:49:16;;;;;;;14.53;2.60;;;8.20;99.90;;;;;;5041367;28;20036;-68
2022/12/24 06:51:42;;;;;;;18.20;2.60;;;8.30;99.90;;;;;;5044374;28;20576;-68
2022/12/24 06:54:07;;;;;;;18.20;4.03;;;8.30;99.90;;;;;;5045391;28;20040;-66
2022/12/24 06:56:33;;;;;;;22.47;3.07;;;8.30;99.90;;;;;;5041416;28;20083;-66
2022/12/24 06:58:59;;;;;;;25.57;3.23;;;8.30;99.90;;;;;;5039128;28;20750;-66
2022/12/24 07:01:24;;;;;;;21.30;3.20;;;8.40;99.90;;;;;;5022225;28;20136;-65
2022/12/24 07:03:50;;;;;;;18.33;2.60;;;8.30;99.90;;;;;;5042894;28;20075;-66
2022/12/24 07:06:27;;;;;;;15.80;3.07;;;8.40;99.90;;;;;;5043545;28;20052;-66
2022/12/24 07:08:53;;;;;;;18.45;2.63;;;8.40;99.90;;;;;;5016122;28;20403;-66
2022/12/24 07:11:20;;;;;;;23.33;3.42;;;8.40;99.90;;;;;;5043888;28;20044;-66
2022/12/24 07:13:45;;;;;;;;;;;8.40;99.90;;;;;;5047047;28;20574;-66
2022/12/24 07:16:11;;;;;;;27.83;3.55;;;8.40;99.90;;;;;;5047882;28;20020;-66
2022/12/24 07:18:37;;;;;;;19.97;3.03;;;8.50;99.90;;;;;;5032722;28;20426;-67
2022/12/24 07:21:04;;;;;;;24.80;2.90;;;8.40;99.90;;;;;;5034869;28;20064;-67
2022/12/24 07:23:32;;;;;;;17.60;2.40;;;8.40;99.90;;;;;;5049192;28;20078;-66
2022/12/24 07:26:05;;;;;;;14.18;2.72;;;8.40;99.90;;;;;;5020225;28;20049;-66
2022/12/24 07:28:31;;;;;;;24.08;3.40;;;8.30;99.90;;;;;;5037769;28;20123;-66
2022/12/24 07:30:57;;;;;;;13.33;3.90;;;8.30;99.90;;;;;;5039280;28;20124;-66
2022/12/24 07:33:24;;;;;;;21.02;3.13;;;8.30;99.90;;;;;;5045763;28;20414;-67
2022/12/24 07:36:04;;;;;;;21.02;3.63;;;8.20;99.90;;;;;;5037320;28;20124;-66
2022/12/24 07:38:31;;;;;;;15.93;3.20;;;8.20;99.90;;;;;;5016076;28;20045;-66
2022/12/24 07:40:57;;;;;;;;;;;8.20;99.90;;;;;;5036474;28;20052;-66
2022/12/24 07:43:23;;;;;;;16.00;2.97;;;8.10;99.90;;;;;;5033447;28;19917;-66
2022/12/24 07:45:49;;;;;;;17.83;3.08;;;8.10;99.90;;;;;;5042169;28;20045;-68
2022/12/24 07:48:14;;;;;;;16.95;2.80;;;8.10;99.90;;;;;;5045146;28;20057;-67
2022/12/24 07:50:41;;;;;;;18.57;4.27;;;8.00;99.90;;;;;;5038545;28;20074;-66
2022/12/24 07:53:06;;;;;;;17.83;3.65;;;8.00;99.90;;;;;;5040108;28;20352;-66
2022/12/24 07:55:32;;;;;;;20.13;3.83;;;7.90;99.90;;;;;;5019054;28;20056;-67
2022/12/24 07:57:58;;;;;;;17.87;3.23;;;7.90;99.90;;;;;;5036420;28;20033;-66
2022/12/24 08:00:23;;;;;;;15.10;2.83;;;7.90;99.90;;;;;;5040116;28;20999;-66
2022/12/24 08:02:49;;;;;;;27.53;3.60;;;7.90;99.90;;;;;;5025934;28;20101;-66
2022/12/24 08:05:14;;;;;;;15.73;2.80;;;7.80;99.90;;;;;;5046319;28;20149;-67
2022/12/24 08:07:40;;;;;;;18.00;3.73;;;7.80;99.90;;;;;;5040185;28;20506;-66
2022/12/24 08:10:06;;;;;;;11.73;3.57;;;7.80;99.90;;;;;;5044347;28;20033;-66
2022/12/24 08:12:32;;;;;;;19.17;2.72;;;7.80;99.90;;;;;;5041819;28;20273;-67
2022/12/24 08:14:58;;;;;;;11.80;2.27;;;7.80;99.90;;;;;;5027763;28;20071;-66
2022/12/24 08:17:24;;;;;;;21.70;3.13;;;7.80;99.90;;;;;;5040188;28;20049;-67
2022/12/24 08:19:50;;;;;;;19.73;2.63;;;7.80;99.90;;;;;;5044696;28;20052;-66
2022/12/24 08:22:16;;;;;;;25.17;3.97;;;7.80;99.90;;;;;;5047456;28;20274;-66
2022/12/24 08:24:41;;;;;;;21.88;4.28;;;7.90;99.90;;;;;;5024784;28;20041;-66
2022/12/24 08:27:07;;;;;;;14.87;2.90;;;7.80;99.90;;;;;;5036109;28;20048;-66
2022/12/24 08:29:33;;;;;;;23.30;2.90;;;7.90;99.90;;;;;;5024712;28;20037;-66
2022/12/24 08:31:58;;;;;;;27.53;3.40;;;7.80;99.90;;;;;;5042784;28;20678;-67
2022/12/24 08:34:24;;;;;;;19.00;3.33;;;7.80;99.90;;;;;;5039098;28;20639;-66
2022/12/24 08:36:50;;;;;;;15.93;3.00;;;7.80;99.90;;;;;;5043926;28;20052;-66
2022/12/24 08:39:16;;;;;;;18.05;3.65;;;7.90;99.90;;;;;;5041842;28;20118;-67
2022/12/24 08:41:41;;;;;;;18.27;3.40;;;7.90;99.90;;;;;;5049150;28;20124;-66
2022/12/24 08:44:07;;;;;;;13.47;2.53;;;7.90;99.90;;;;;;5017966;28;20398;-67
2022/12/24 08:46:33;;;;;;;14.50;2.60;;;7.90;99.90;;;;;;5026162;28;20491;-67
2022/12/24 08:48:59;;;;;;;26.00;3.40;;;8.00;99.90;;;;;;5043685;28;20092;-67
2022/12/24 08:51:24;;;;;;;16.92;2.67;;;8.10;99.90;;;;;;5043022;28;20047;-67
2022/12/24 08:53:50;;;;;;;12.93;2.37;;;8.10;99.90;;;;;;5025481;28;20510;-67
2022/12/24 08:56:16;;;;;;;16.03;2.77;;;8.10;99.90;;;;;;5048076;28;20290;-67
2022/12/24 08:58:42;;;;;;;14.23;2.60;;;8.10;99.90;;;;;;5038444;28;20388;-66
2022/12/24 09:01:14;;;;;;;18.83;3.63;;;8.10;99.90;;;;;;5035588;28;20449;-67
2022/12/24 09:03:40;;;;;;;12.90;2.50;;;8.20;99.90;;;;;;5044950;28;20388;-66
2022/12/24 09:06:06;;;;;;;15.90;2.20;;;8.20;99.90;;;;;;5044529;28;20060;-66
2022/12/24 09:08:33;;;;;;;17.55;2.95;;;8.20;99.90;;;;;;5045088;28;20136;-66
2022/12/24 09:11:14;;;;;;;20.05;3.63;;;8.30;99.90;;;;;;5021958;28;20159;-67
2022/12/24 09:13:40;;;;;;;15.57;3.10;;;8.30;99.90;;;;;;5041392;28;20200;-66
2022/12/24 09:16:06;;;;;;;;;;;8.40;99.90;;;;;;5038501;28;20118;-67
2022/12/24 09:18:33;;;;;;;19.50;2.70;;;8.40;99.90;;;;;;5025973;28;19925;-67
2022/12/24 09:21:04;;;;;;;17.17;3.15;;;8.50;99.90;;;;;;5039518;28;20477;-67
2022/12/24 09:23:31;;;;;;;16.63;3.17;;;8.50;99.90;;;;;;5046002;28;20036;-67
2022/12/24 09:25:57;;;;;;;18.50;3.47;;;8.50;99.90;;;;;;5036070;28;20052;-67
2022/12/24 09:28:23;;;;;;;18.93;3.17;;;8.60;99.90;;;;;;5036550;28;20044;-66
2022/12/24 09:30:59;;;;;;;18.10;2.75;;;8.60;99.90;;;;;;5039483;28;20491;-66
2022/12/24 09:33:26;;;;;;;15.15;3.42;;;8.70;99.90;;;;;;5039064;28;20341;-66
2022/12/24 09:35:53;;;;;;;19.58;2.90;;;8.70;99.90;;;;;;5037515;28;20032;-67
2022/12/24 09:38:20;;;;;;;23.00;3.88;;;8.80;99.90;;;;;;5038446;28;20037;-67
2022/12/24 09:40:47;;;;;;;18.27;3.80;;;8.80;99.90;;;;;;5024381;28;20112;-67
2022/12/24 09:43:15;;;;;;;;;;;8.90;99.90;;;;;;5041235;28;20049;-66
2022/12/24 09:45:53;;;;;;;17.77;3.40;;;8.90;99.90;;;;;;5041653;28;20428;-68
2022/12/24 09:48:27;;;;;;;17.50;2.85;;;8.90;99.90;;;;;;5032062;28;20670;-68
2022/12/24 09:51:09;;;;;;;16.92;3.42;;;9.00;99.90;;;;;;5017451;28;20041;-66
2022/12/24 09:53:54;;;;;;;20.98;3.72;;;9.00;99.90;;;;;;5041221;28;20068;-66
2022/12/24 09:56:24;;;;;;;19.60;3.58;;;9.00;99.90;;;;;;5018399;28;20569;-66
2022/12/24 09:58:58;;;;;;;24.83;3.95;;;9.00;99.90;;;;;;5019939;28;20124;-67
2022/12/24 10:01:24;;;;;;;16.63;2.45;;;9.10;99.90;;;;;;5038192;28;20079;-66
2022/12/24 10:03:50;;;;;;;19.40;3.33;;;9.10;99.90;;;;;;5047105;28;20102;-68
2022/12/24 10:06:15;;;;;;;16.55;2.88;;;9.20;99.90;;;;;;5048365;28;20052;-67
2022/12/24 10:09:10;;;;;;;22.13;3.27;;;9.20;99.90;;;;;;5030263;28;20499;-67
2022/12/24 10:11:51;;;;;;;17.90;3.35;;;9.20;99.90;;;;;;5042307;28;20127;-67
2022/12/24 10:14:46;;;;;;;23.10;3.40;;;9.20;99.90;;;;;;5047119;28;20090;-67
2022/12/24 10:17:51;;;;;;;21.45;2.97;;;9.20;99.90;;;;;;5038279;28;20049;-67
2022/12/24 10:20:43;;;;;;;13.02;3.40;;;9.20;99.90;;;;;;5001583;28;20068;-67
2022/12/24 10:23:47;;;;;;;16.90;2.60;;;9.30;99.90;;;;;;5035225;28;20045;-67
2022/12/24 10:26:22;;;;;;;18.67;2.55;;;9.30;99.90;;;;;;4945229;28;20537;-67
2022/12/24 10:28:55;;;;;;;19.27;2.60;;;9.40;99.90;;;;;;4957334;28;20046;-67
2022/12/24 10:31:27;;;;;;;16.58;2.80;;;9.40;99.90;;;;;;4999841;28;22391;-67
2022/12/24 10:34:04;;;;;;;21.83;4.18;;;9.40;99.90;;;;;;5032779;28;20059;-67
2022/12/24 10:36:32;;;;;;;21.05;3.50;;;9.40;99.90;;;;;;5034217;28;20048;-67
2022/12/24 10:38:58;;;;;;;16.45;3.85;;;9.50;99.90;;;;;;5040826;28;20042;-67
2022/12/24 10:41:28;;;;;;;10.13;2.00;;;9.50;99.90;;;;;;5023498;28;20052;-67
2022/12/24 10:43:54;;;;;;;23.38;2.78;;;9.50;99.90;;;;;;5035050;28;20486;-67
2022/12/24 10:46:23;;;;;;;14.70;3.63;;;9.60;99.90;;;;;;5035792;28;20045;-67
2022/12/24 10:49:17;;;;;;;10.43;2.55;;;9.60;99.90;;;;;;5015961;28;20057;-67
2022/12/24 10:51:50;;;;;;;23.38;3.10;;;9.60;99.90;;;;;;5038049;28;20578;-67
2022/12/24 10:54:18;;;;;;;21.30;2.92;;;9.50;99.90;;;;;;5040210;28;20052;-67
2022/12/24 10:56:51;;;;;;;11.23;2.50;;;9.60;99.90;;;;;;5041067;28;20155;-67
2022/12/24 10:59:41;;;;;;;21.35;2.78;;;9.50;99.90;;;;;;5024987;28;20051;-67
2022/12/24 11:02:27;;;;;;;17.88;3.22;;;9.50;99.90;;;;;;5039642;28;20041;-67
2022/12/24 11:04:53;;;;;;;21.25;3.03;;;9.60;99.90;;;;;;5036949;28;20115;-67
2022/12/24 11:07:21;;;;;;;15.02;2.47;;;9.50;99.90;;;;;;5042439;28;20320;-67
2022/12/24 11:09:59;;;;;;;15.55;2.25;;;9.50;99.90;;;;;;5039460;28;20091;-67
2022/12/24 11:12:31;;;;;;;18.05;3.70;;;9.50;99.90;;;;;;5018347;28;20487;-67
2022/12/24 11:15:18;;;;;;;17.58;2.78;;;9.50;99.90;;;;;;5036827;28;20037;-67
2022/12/24 11:20:36;;;;;;;13.02;3.20;;;9.50;99.90;;;;;;5028270;28;20118;-67
2022/12/24 11:23:04;;;;;;;;;;;9.50;99.90;;;;;;5035332;28;20510;-67
2022/12/24 11:25:37;;;;;;;16.98;2.88;;;9.50;99.90;;;;;;5030023;28;20409;-67
2022/12/24 11:28:17;;;;;;;16.60;2.90;;;9.50;99.90;;;;;;5011624;28;20452;-67
2022/12/24 11:31:03;;;;;;;13.95;2.85;;;9.40;99.90;;;;;;5030082;28;20120;-67
2022/12/24 11:33:30;;;;;;;12.82;2.63;;;9.50;99.90;;;;;;5010113;28;20127;-67
2022/12/24 11:36:01;;;;;;;21.88;3.88;;;9.50;99.90;;;;;;5023146;28;20077;-67
2022/12/24 11:38:28;;;;;;;20.55;2.50;;;9.50;99.90;;;;;;5011993;28;20072;-68
2022/12/24 11:41:06;;;;;;;15.90;3.90;;;9.50;99.90;;;;;;5032717;28;20048;-67
2022/12/24 11:43:47;;;;;;;11.52;2.88;;;9.50;99.90;;;;;;5030677;28;20085;-68
2022/12/24 11:46:42;;;;;;;14.00;2.28;;;9.50;99.90;;;;;;5010989;28;20041;-67
2022/12/24 11:49:10;;;;;;;20.15;2.53;;;9.50;99.90;;;;;;5008132;28;20438;-67
2022/12/24 11:51:57;;;;;;;10.48;2.67;;;9.50;99.90;;;;;;5031218;28;20052;-67
2022/12/24 11:54:27;;;;;;;18.50;3.20;;;9.40;99.90;;;;;;5017415;28;20041;-67
2022/12/24 11:56:56;;;;;;;15.75;3.38;;;9.50;99.90;;;;;;5023509;28;20080;-68
2022/12/24 11:59:40;;;;;;;17.77;3.65;;;9.40;99.90;;;;;;5037591;28;20041;-68
2022/12/24 12:02:09;;;;;;;18.90;2.67;;;9.50;99.90;;;;;;5010458;28;20041;-68
2022/12/24 12:04:37;;;;;;;13.00;2.45;;;9.50;99.90;;;;;;5029358;28;20069;-68
2022/12/24 12:07:18;;;;;;;13.40;2.30;;;9.50;99.90;;;;;;5028981;28;20103;-68
2022/12/24 12:09:53;;;;;;;18.38;3.10;;;9.50;99.90;;;;;;5037660;28;20049;-68
2022/12/24 12:12:26;;;;;;;13.65;2.53;;;9.50;99.90;;;;;;5025242;28;20060;-68
2022/12/24 12:15:00;;;;;;;21.38;2.65;;;9.50;99.90;;;;;;5028121;28;20512;-68
2022/12/24 12:17:32;;;;;;;16.38;2.15;;;9.50;99.90;;;;;;5014160;28;20418;-68
2022/12/24 12:20:34;;;;;;;13.18;2.33;;;9.50;99.90;;;;;;5004496;28;20053;-67
2022/12/24 12:23:16;;;;;;;16.20;2.60;;;9.50;99.90;;;;;;5005176;28;20437;-68
2022/12/24 12:26:16;;;;;;;10.05;2.45;;;9.60;99.90;;;;;;5010406;28;20041;-68
2022/12/24 12:29:07;;;;;;;11.50;2.10;;;9.60;99.90;;;;;;5027101;28;20045;-68
2022/12/24 12:31:48;;;;;;;14.45;1.88;;;9.60;99.90;;;;;;5018024;28;20351;-68
2022/12/24 12:34:30;;;;;;;16.95;3.83;;;9.60;99.90;;;;;;5006744;28;20128;-68
2022/12/24 12:37:15;;;;;;;12.98;2.20;;;9.70;99.90;;;;;;5028303;28;20428;-68
2022/12/24 12:39:41;;;;;;;19.27;4.20;;;9.70;99.90;;;;;;5035638;28;20330;-68
2022/12/24 12:42:29;;;;;;;9.85;2.25;;;9.70;99.90;;;;;;4993460;28;20245;-68
2022/12/24 12:45:24;;;;;;;18.95;2.25;;;9.70;99.90;;;;;;5028633;28;20137;-68
2022/12/24 12:48:34;;;;;;;10.75;2.55;;;9.70;99.90;;;;;;5024966;28;20792;-68
2022/12/24 12:51:08;;;;;;;14.70;2.30;;;9.60;99.90;;;;;;5014225;28;20037;-67
2022/12/24 12:54:05;;;;;;;19.73;2.83;;;9.60;99.90;;;;;;5045765;28;20447;-68
2022/12/24 12:56:34;;;;;;;11.52;2.90;;;9.60;99.90;;;;;;4964376;28;20144;-68
2022/12/24 12:59:24;;;;;;;15.32;2.15;;;9.60;99.90;;;;;;5028153;28;20037;-68
2022/12/24 13:02:12;;;;;;;14.10;2.30;;;9.50;99.90;;;;;;5010651;28;20052;-68
2022/12/24 13:05:06;;;;;;;20.33;2.78;;;9.50;99.90;;;;;;5009268;28;20048;-68
2022/12/24 13:07:47;;;;;;;14.57;2.15;;;9.50;99.90;;;;;;5027342;28;20042;-67
2022/12/24 13:10:40;;;;;;;18.10;3.33;;;9.50;99.90;;;;;;5009020;28;20085;-68
2022/12/24 13:13:23;;;;;;;12.52;1.77;;;9.40;99.90;;;;;;5009325;28;20115;-68
2022/12/24 13:16:12;;;;;;;12.68;2.67;;;9.40;99.90;;;;;;5020863;28;20133;-68
2022/12/24 13:19:08;;;;;;;10.23;2.58;;;9.40;99.90;;;;;;5018076;28;20511;-68